sensor_id;sensor_type;location;lat;lon;timestamp;P1;durP1;ratioP1;P2;durP2;ratioP2
82412;SDS011;72056;51.980;15.436;2023-08-06T16:11:01;3.03;;;0.87;;
82412;SDS011;72056;51.980;15.436;2023-08-06T16:13:27;2.33;;;0.82;;
82412;SDS011;72056;51.980;15.436;2023-08-06T16:15:53;1.80;;;0.80;;
82412;SDS011;72056;51.980;15.436;2023-08-06T16:25:08;1.77;;;0.70;;
82412;SDS011;72056;51.980;15.436;2023-08-06T16:27:37;1.75;;;0.70;;
82412;SDS011;72056;51.980;15.436;2023-08-06T16:33:53;2.17;;;0.80;;
82412;SDS011;72056;51.980;15.436;2023-08-06T16:43:03;2.42;;;1.13;;
82412;SDS011;72056;51.980;15.436;2023-08-06T16:45:30;3.55;;;1.40;;
82412;SDS011;72056;51.980;15.436;2023-08-06T16:48:02;4.13;;;1.60;;
82412;SDS011;72056;51.980;15.436;2023-08-06T16:50:32;2.55;;;1.17;;
82412;SDS011;72056;51.980;15.436;2023-08-06T16:52:58;3.92;;;1.30;;
82412;SDS011;72056;51.980;15.436;2023-08-06T16:55:24;3.15;;;1.38;;
82412;SDS011;72056;51.980;15.436;2023-08-06T16:57:50;4.40;;;1.50;;
82412;SDS011;72056;51.980;15.436;2023-08-06T17:00:17;4.70;;;1.65;;
82412;SDS011;72056;51.980;15.436;2023-08-06T17:02:43;3.55;;;1.42;;
82412;SDS011;72056;51.980;15.436;2023-08-06T17:05:10;5.13;;;1.83;;
82412;SDS011;72056;51.980;15.436;2023-08-06T17:07:35;5.53;;;1.70;;
82412;SDS011;72056;51.980;15.436;2023-08-06T17:10:01;5.10;;;2.35;;
82412;SDS011;72056;51.980;15.436;2023-08-06T17:12:28;5.50;;;1.92;;
82412;SDS011;72056;51.980;15.436;2023-08-06T17:14:58;5.30;;;1.80;;
82412;SDS011;72056;51.980;15.436;2023-08-06T17:17:26;4.53;;;1.98;;
82412;SDS011;72056;51.980;15.436;2023-08-06T17:19:56;4.03;;;1.67;;
82412;SDS011;72056;51.980;15.436;2023-08-06T17:22:23;4.68;;;1.75;;
82412;SDS011;72056;51.980;15.436;2023-08-06T17:24:49;4.45;;;1.77;;
82412;SDS011;72056;51.980;15.436;2023-08-06T17:27:16;5.30;;;1.90;;
82412;SDS011;72056;51.980;15.436;2023-08-06T17:29:46;4.80;;;1.80;;
82412;SDS011;72056;51.980;15.436;2023-08-06T17:32:12;4.78;;;1.60;;
82412;SDS011;72056;51.980;15.436;2023-08-06T17:34:39;4.70;;;1.45;;
82412;SDS011;72056;51.980;15.436;2023-08-06T17:37:05;4.00;;;1.50;;
82412;SDS011;72056;51.980;15.436;2023-08-06T17:39:32;3.33;;;1.40;;
82412;SDS011;72056;51.980;15.436;2023-08-06T17:41:59;4.20;;;1.50;;
82412;SDS011;72056;51.980;15.436;2023-08-06T17:44:29;4.35;;;1.80;;
82412;SDS011;72056;51.980;15.436;2023-08-06T17:46:56;4.63;;;1.80;;
82412;SDS011;72056;51.980;15.436;2023-08-06T17:49:22;5.47;;;1.63;;
82412;SDS011;72056;51.980;15.436;2023-08-06T17:51:49;4.72;;;1.73;;
82412;SDS011;72056;51.980;15.436;2023-08-06T17:54:15;5.20;;;1.92;;
82412;SDS011;72056;51.980;15.436;2023-08-06T17:56:41;6.57;;;2.47;;
82412;SDS011;72056;51.980;15.436;2023-08-06T17:59:07;4.57;;;1.70;;
82412;SDS011;72056;51.980;15.436;2023-08-06T18:01:33;4.22;;;1.63;;
82412;SDS011;72056;51.980;15.436;2023-08-06T18:03:59;4.28;;;1.45;;
82412;SDS011;72056;51.980;15.436;2023-08-06T18:06:25;4.53;;;1.75;;
82412;SDS011;72056;51.980;15.436;2023-08-06T18:08:51;5.13;;;2.15;;
82412;SDS011;72056;51.980;15.436;2023-08-06T18:11:17;4.72;;;1.65;;
82412;SDS011;72056;51.980;15.436;2023-08-06T18:13:44;4.63;;;1.80;;
82412;SDS011;72056;51.980;15.436;2023-08-06T18:16:11;5.05;;;1.92;;
82412;SDS011;72056;51.980;15.436;2023-08-06T18:18:37;4.22;;;1.73;;
82412;SDS011;72056;51.980;15.436;2023-08-06T18:21:04;5.55;;;1.60;;
82412;SDS011;72056;51.980;15.436;2023-08-06T18:23:31;5.07;;;2.03;;
